Time;durP1;ratioP1;P1;durP2;ratioP2;P2;SDS_P1;SDS_P2;PMS_P1;PMS_P2;Temp;Humidity;BMP_temperature;BMP_pressure;BME280_temperature;BME280_humidity;BME280_pressure;Samples;Min_cycle;Max_cycle;Signal;HPM_P1;HPM_P2
2022/09/02 00:04:57;;;;;;;2.67;0.95;;;;;;;13.61;100.00;102004.69;10414571;28;20068;-77
2022/09/02 00:09:59;;;;;;;4.15;0.80;;;;;;;13.51;100.00;101986.78;10381125;28;20034;-77
2022/09/02 00:15:00;;;;;;;3.03;0.90;;;;;;;13.55;100.00;101997.38;10363164;28;20034;-77
2022/09/02 00:20:00;;;;;;;2.60;0.93;;;;;;;13.50;100.00;102000.88;10380747;28;20041;-77
2022/09/02 00:25:01;;;;;;;1.77;1.10;;;;;;;13.45;100.00;102001.59;10359802;28;20053;-77
2022/09/02 00:30:03;;;;;;;2.00;0.95;;;;;;;13.42;100.00;101995.72;10339794;28;20033;-77
2022/09/02 00:35:04;;;;;;;3.75;1.00;;;;;;;13.29;100.00;101985.78;10339606;28;20046;-77
2022/09/02 00:40:06;;;;;;;2.63;1.00;;;;;;;13.25;100.00;101987.31;10324586;28;20034;-78
2022/09/02 00:45:07;;;;;;;1.83;0.82;;;;;;;13.17;100.00;101984.94;10340253;28;20041;-78
2022/09/02 00:50:08;;;;;;;3.20;1.05;;;;;;;12.99;100.00;101970.19;10372273;28;20105;-77
2022/09/02 00:55:18;;;;;;;1.77;0.80;;;;;;;13.06;100.00;101981.97;10322597;28;20402;-78
2022/09/02 01:00:20;;;;;;;0.88;0.73;;;;;;;12.99;100.00;101978.50;10394927;28;20129;-76
2022/09/02 01:05:22;;;;;;;1.75;1.30;;;;;;;12.82;100.00;101958.22;10378804;28;20172;-78
2022/09/02 01:10:25;;;;;;;1.38;1.00;;;;;;;12.92;100.00;101980.56;10364567;28;20045;-77
2022/09/02 01:15:26;;;;;;;2.80;1.00;;;;;;;12.83;100.00;101968.19;10379087;28;20033;-77
2022/09/02 01:20:26;;;;;;;7.70;1.10;;;;;;;12.83;100.00;101971.78;10362141;28;20041;-77
2022/09/02 01:25:30;;;;;;;1.73;1.13;;;;;;;12.71;100.00;101960.78;10379605;28;20045;-77
2022/09/02 01:30:30;;;;;;;2.40;1.17;;;;;;;12.69;100.00;101953.78;10384419;28;20055;-77
2022/09/02 01:35:31;;;;;;;1.15;0.80;;;;;;;12.62;100.00;101947.56;10418765;28;20033;-77
2022/09/02 01:40:32;;;;;;;1.80;1.08;;;;;;;12.53;100.00;101941.56;10451998;28;20056;-78
2022/09/02 01:45:34;;;;;;;1.35;0.90;;;;;;;12.52;100.00;101949.00;10418896;28;20044;-78
2022/09/02 01:50:36;;;;;;;3.10;1.00;;;;;;;12.52;100.00;101948.16;10402949;28;20044;-78
2022/09/02 01:55:37;;;;;;;1.83;1.23;;;;;;;12.46;100.00;101938.06;10435978;28;20380;-78
2022/09/02 02:00:37;;;;;;;2.53;1.30;;;;;;;12.47;100.00;101939.78;10420042;28;20044;-75
2022/09/02 02:05:38;;;;;;;1.92;1.13;;;;;;;12.40;100.00;101930.75;10430036;28;20472;-77
2022/09/02 02:10:40;;;;;;;3.63;1.33;;;;;;;12.36;100.00;101926.78;10378207;28;20034;-77
2022/09/02 02:15:41;;;;;;;7.03;1.33;;;;;;;12.33;100.00;101933.63;10377586;28;20231;-77
2022/09/02 02:20:42;;;;;;;2.15;1.05;;;;;;;12.23;100.00;101914.91;10353272;28;20044;-78
2022/09/02 02:25:42;;;;;;;4.07;1.17;;;;;;;12.29;100.00;101924.16;10337212;28;20126;-76
2022/09/02 02:30:43;;;;;;;1.60;0.93;;;;;;;12.19;100.00;101916.47;10336465;28;20044;-77
2022/09/02 02:35:43;;;;;;;4.32;1.10;;;;;;;12.18;100.00;101927.78;10419693;28;20613;-77
2022/09/02 02:40:44;;;;;;;1.55;1.05;;;;;;;12.08;100.00;101914.56;10367857;28;20068;-77
2022/09/02 02:45:44;;;;;;;4.13;1.13;;;;;;;12.01;100.00;101913.81;10422756;28;20060;-77
2022/09/02 02:50:45;;;;;;;4.55;2.05;;;;;;;11.98;100.00;101908.78;10442420;28;20037;-77
2022/09/02 02:55:45;;;;;;;1.60;0.90;;;;;;;12.00;100.00;101912.16;10426071;28;20099;-77
2022/09/02 03:00:46;;;;;;;2.33;1.50;;;;;;;11.88;100.00;101901.91;10402291;28;20092;-76
2022/09/02 03:05:47;;;;;;;2.08;1.20;;;;;;;11.75;100.00;101899.34;10384610;28;20091;-77
2022/09/02 03:10:53;;;;;;;3.20;1.30;;;;;;;11.80;100.00;101904.16;10380268;28;20037;-77
2022/09/02 03:15:53;;;;;;;5.10;1.30;;;;;;;11.81;100.00;101909.44;10396866;28;20044;-77
2022/09/02 03:20:54;;;;;;;2.92;1.40;;;;;;;11.69;100.00;101900.31;10416691;28;20037;-76
2022/09/02 03:25:54;;;;;;;3.35;1.20;;;;;;;11.72;100.00;101905.38;10384058;28;20041;-77
2022/09/02 03:30:55;;;;;;;2.65;1.55;;;;;;;11.64;100.00;101897.44;10368305;28;20052;-76
2022/09/02 03:35:55;;;;;;;2.05;1.30;;;;;;;11.52;100.00;101878.91;10356866;28;20783;-77
2022/09/02 03:40:56;;;;;;;4.22;1.70;;;;;;;11.56;100.00;101886.75;10356910;28;20038;-76
2022/09/02 03:45:57;;;;;;;1.63;1.30;;;;;;;11.61;100.00;101895.13;10342238;28;20073;-78
2022/09/02 03:50:57;;;;;;;3.10;1.35;;;;;;;11.46;100.00;101874.34;10397461;28;20435;-77
2022/09/02 03:56:06;;;;;;;4.13;1.48;;;;;;;11.50;100.00;101880.25;10341831;28;20038;-77
2022/09/02 04:01:07;;;;;;;3.10;1.42;;;;;;;11.08;100.00;101817.69;10398326;28;20034;-76
2022/09/02 04:06:11;;;;;;;4.65;1.52;;;;;;;11.43;100.00;101876.72;10398431;28;20500;-76
2022/09/02 04:11:15;;;;;;;1.95;1.20;;;;;;;11.36;100.00;101865.81;10357301;28;20102;-77
2022/09/02 04:16:18;;;;;;;1.70;1.38;;;;;;;11.38;100.00;101876.63;10380533;28;20093;-77
2022/09/02 04:21:18;;;;;;;3.15;1.65;;;;;;;11.36;100.00;101871.31;10414183;28;20038;-76
2022/09/02 04:26:19;;;;;;;1.70;1.27;;;;;;;11.34;100.00;101875.41;10397917;28;20037;-76
2022/09/02 04:31:20;;;;;;;2.53;1.73;;;;;;;11.29;100.00;101874.19;10398654;28;20029;-76
2022/09/02 04:36:21;;;;;;;4.47;1.60;;;;;;;11.13;100.00;101854.72;10401794;28;20038;-78
2022/09/02 04:41:23;;;;;;;2.13;1.20;;;;;;;11.18;100.00;101863.13;10409698;28;20048;-77
2022/09/02 04:46:24;;;;;;;3.20;1.50;;;;;;;11.12;100.00;101856.66;10438515;28;20053;-76
2022/09/02 04:51:25;;;;;;;4.35;1.63;;;;;;;11.21;100.00;101869.00;10385256;28;20048;-77
2022/09/02 04:56:26;;;;;;;1.90;1.20;;;;;;;11.10;100.00;101859.63;10363406;28;20044;-77
2022/09/02 05:01:31;;;;;;;3.45;1.80;;;;;;;11.19;100.00;101868.41;10376508;28;20135;-77
2022/09/02 05:06:31;;;;;;;4.22;1.30;;;;;;;10.99;100.00;101841.13;10404265;28;20047;-77
2022/09/02 05:11:32;;;;;;;2.28;1.65;;;;;;;11.21;100.00;101865.41;10404561;28;20052;-77
2022/09/02 05:16:35;;;;;;;5.88;1.45;;;;;;;10.82;100.00;101807.03;10420338;28;20098;-77
2022/09/02 05:21:42;;;;;;;3.22;1.52;;;;;;;11.23;100.00;101868.78;10452945;28;20082;-77
2022/09/02 05:26:43;;;;;;;;;;;;;;;11.30;100.00;101869.50;10421349;28;20562;-77
2022/09/02 05:31:44;;;;;;;3.35;1.50;;;;;;;11.26;100.00;101869.13;10414498;28;19959;-77
2022/09/02 05:36:44;;;;;;;2.80;1.17;;;;;;;11.36;100.00;101868.56;10398279;28;20059;-76
2022/09/02 05:41:45;;;;;;;4.28;2.05;;;;;;;11.42;100.00;101866.78;10402436;28;20104;-77
2022/09/02 05:46:46;;;;;;;2.60;1.52;;;;;;;11.49;100.00;101873.03;10381478;28;20061;-77
2022/09/02 05:51:47;;;;;;;3.15;1.60;;;;;;;11.58;100.00;101866.13;10370972;28;20045;-74
2022/09/02 05:56:50;;;;;;;2.38;1.88;;;;;;;11.61;100.00;101856.50;10395549;28;20040;-77
2022/09/02 06:01:51;;;;;;;3.50;1.75;;;;;;;11.74;100.00;101861.84;10385811;28;20059;-78
2022/09/02 06:06:51;;;;;;;4.57;2.03;;;;;;;11.76;100.00;101851.41;10434279;28;20077;-78
2022/09/02 06:11:52;;;;;;;3.13;1.55;;;;;;;12.07;100.00;101860.41;10409935;28;20047;-77
2022/09/02 06:16:53;;;;;;;6.05;2.00;;;;;;;12.35;100.00;101845.03;10409725;28;20100;-77
2022/09/02 06:21:54;;;;;;;5.25;1.70;;;;;;;12.77;100.00;101840.13;10408726;28;20044;-77
2022/09/02 06:26:55;;;;;;;2.58;1.65;;;;;;;13.16;100.00;101842.25;10411059;28;20052;-76
2022/09/02 06:31:55;;;;;;;3.40;1.77;;;;;;;13.41;100.00;101811.47;10427195;28;20128;-78
2022/09/02 06:36:56;;;;;;;5.28;1.40;;;;;;;13.87;100.00;101851.81;10411839;28;22116;-77
2022/09/02 06:41:57;;;;;;;6.07;1.67;;;;;;;14.23;100.00;101841.28;10409763;28;20040;-77
2022/09/02 06:46:58;;;;;;;2.40;1.50;;;;;;;14.53;100.00;101854.72;10425515;28;20029;-77
2022/09/02 06:51:59;;;;;;;4.80;1.23;;;;;;;14.79;100.00;101852.28;10367948;28;20065;-77
2022/09/02 06:56:59;;;;;;;2.15;1.27;;;;;;;14.96;100.00;101838.34;10361732;28;20037;-76
2022/09/02 07:02:00;;;;;;;3.17;1.25;;;;;;;15.14;100.00;101831.59;10371165;28;20049;-77
2022/09/02 07:07:02;;;;;;;2.67;1.42;;;;;;;15.32;100.00;101830.41;10365190;28;20038;-77
2022/09/02 07:12:03;;;;;;;4.13;1.25;;;;;;;15.42;100.00;101811.06;10386687;28;20037;-79
2022/09/02 07:17:03;;;;;;;5.10;1.45;;;;;;;15.74;100.00;101826.91;10416493;28;20030;-77
2022/09/02 07:22:04;;;;;;;2.30;1.20;;;;;;;15.79;100.00;101807.47;10406374;28;20117;-77
2022/09/02 07:27:05;;;;;;;2.90;1.10;;;;;;;16.10;100.00;101818.78;10408598;28;20061;-76
2022/09/02 07:32:06;;;;;;;3.88;1.20;;;;;;;16.25;100.00;101810.56;10385328;28;22090;-77
2022/09/02 07:37:07;;;;;;;3.00;1.50;;;;;;;16.31;100.00;101792.81;10399981;28;20463;-77
2022/09/02 07:42:07;;;;;;;2.97;1.48;;;;;;;16.52;100.00;101804.84;10388486;28;20030;-78
2022/09/02 07:47:08;;;;;;;6.35;1.38;;;;;;;16.85;100.00;101818.63;10383880;28;20360;-78
2022/09/02 07:52:08;;;;;;;2.33;1.20;;;;;;;17.06;100.00;101812.00;10383193;28;20038;-78
2022/09/02 07:57:09;;;;;;;4.68;1.63;;;;;;;17.24;100.00;101807.84;10432101;28;20052;-77
2022/09/02 08:02:09;;;;;;;3.60;1.27;;;;;;;17.40;100.00;101797.53;10406512;28;20029;-77
2022/09/02 08:07:10;;;;;;;3.55;1.38;;;;;;;17.59;100.00;101797.84;10406249;28;20037;-79
2022/09/02 08:12:10;;;;;;;6.90;1.77;;;;;;;17.81;100.00;101791.97;10417468;28;20041;-77
2022/09/02 08:17:11;;;;;;;2.13;1.40;;;;;;;18.05;100.00;101796.97;10359631;28;20051;-79
2022/09/02 08:22:11;;;;;;;3.60;1.27;;;;;;;18.12;100.00;101769.63;10341963;28;20068;-78
2022/09/02 08:27:12;;;;;;;4.72;1.27;;;;;;;18.12;100.00;101733.41;10359812;28;20030;-78
2022/09/02 08:32:12;;;;;;;8.55;1.30;;;;;;;18.80;100.00;101785.81;10359278;28;20030;-79
2022/09/02 08:37:13;;;;;;;4.47;1.15;;;;;;;19.12;97.81;101771.38;10358481;28;20030;-83
2022/09/02 08:42:20;;;;;;;4.22;1.10;;;;;;;19.29;93.99;101764.56;10337848;28;20041;-82
2022/09/02 08:47:23;;;;;;;3.88;1.10;;;;;;;19.44;93.02;101761.63;10377651;28;20041;-84
2022/09/02 08:52:26;;;;;;;7.85;1.20;;;;;;;19.73;90.89;101752.44;10388580;28;20045;-86
2022/09/02 08:57:27;;;;;;;1.92;1.00;;;;;;;20.01;90.70;101747.09;10372012;28;20105;-81
2022/09/02 09:03:03;;;;;;;3.13;0.98;;;;;;;20.46;87.08;101758.88;10347627;28;20052;-81
2022/09/02 09:08:18;;;;;;;5.50;1.50;;;;;;;20.51;84.37;101730.84;10414273;28;20026;-86
2022/09/02 09:13:24;;;;;;;2.65;1.17;;;;;;;20.81;83.24;101742.75;10450231;28;20144;-81
2022/09/02 09:18:38;;;;;;;2.58;1.10;;;;;;;20.98;82.95;101737.47;10428646;28;20037;-79
2022/09/02 09:23:38;;;;;;;4.60;0.90;;;;;;;21.28;81.02;101729.69;10387768;28;20042;-77
2022/09/02 09:28:46;;;;;;;5.78;1.00;;;;;;;21.32;78.71;101709.16;10396537;28;20033;-80
2022/09/02 09:33:57;;;;;;;1.30;1.08;;;;;;;21.50;77.42;101713.06;10390320;28;20031;-81
2022/09/02 09:38:57;;;;;;;2.35;1.00;;;;;;;21.71;77.13;101695.88;10355701;28;20046;-82
2022/09/02 09:43:58;;;;;;;3.67;0.90;;;;;;;21.94;75.96;101689.22;10352980;28;20037;-88
2022/09/02 09:48:58;;;;;;;5.57;0.93;;;;;;;22.00;73.22;101670.34;10390533;28;20501;-83
2022/09/02 09:54:17;;;;;;;2.25;1.10;;;;;;;22.28;73.29;101687.16;10407779;28;20127;-86
2022/09/02 10:00:00;;;;;;;3.38;1.38;;;;;;;22.34;72.55;101671.88;10416225;28;20067;-83
2022/09/02 10:05:16;;;;;;;5.70;1.20;;;;;;;22.58;71.54;101684.81;10398798;28;20577;-82
2022/09/02 10:10:18;;;;;;;4.35;1.20;;;;;;;22.71;70.26;101661.47;10385228;28;20072;-77
2022/09/02 10:15:43;;;;;;;3.55;0.95;;;;;;;22.55;70.00;101652.56;10426724;28;20041;-83
2022/09/02 10:20:51;;;;;;;6.35;1.10;;;;;;;22.84;70.03;101668.16;10409844;28;20121;-85
2022/09/02 10:25:58;;;;;;;3.42;1.00;;;;;;;22.97;67.83;101644.84;10388818;28;20041;-87
2022/09/02 10:31:01;;;;;;;2.38;1.17;;;;;;;23.24;67.98;101649.50;10394554;28;20045;-87
2022/09/02 10:36:31;;;;;;;4.88;1.08;;;;;;;23.60;66.88;101630.81;10435213;28;20041;-88
2022/09/02 10:41:44;;;;;;;1.80;0.82;;;;;;;23.83;64.41;101625.94;10413492;28;20042;-84
2022/09/02 10:47:04;;;;;;;2.90;0.98;;;;;;;24.12;62.51;101612.13;10415741;28;20041;-86
2022/09/02 10:52:13;;;;;;;1.85;0.70;;;;;;;24.10;62.99;101605.16;10434031;28;20072;-82
2022/09/02 10:57:35;;;;;;;5.13;0.80;;;;;;;24.24;61.72;101602.22;10423785;28;20103;-80
2022/09/02 11:02:37;;;;;;;5.45;0.82;;;;;;;24.33;61.74;101591.78;10433780;28;20509;-82
2022/09/02 11:07:43;;;;;;;8.82;0.85;;;;;;;24.15;60.12;101576.88;10446846;28;20110;-88
2022/09/02 11:12:47;;;;;;;5.63;0.90;;;;;;;24.32;59.86;101554.38;10431251;28;20044;-86
2022/09/02 11:18:03;;;;;;;6.25;0.95;;;;;;;24.67;58.64;101562.81;10426769;28;20052;-91
2022/09/02 11:23:31;;;;;;;4.07;1.02;;;;;;;24.69;58.96;101568.13;10440691;28;20053;-88
2022/09/02 11:28:58;;;;;;;9.52;1.20;;;;;;;24.91;58.84;101564.28;10437600;28;20049;-84
2022/09/02 11:34:45;;;;;;;3.28;0.80;;;;;;;25.41;58.18;101551.50;10433695;28;20052;-87
2022/09/02 11:39:48;;;;;;;8.73;0.90;;;;;;;25.47;54.91;101531.25;10432536;28;20042;-82
2022/09/02 11:45:13;;;;;;;3.13;0.77;;;;;;;25.70;53.32;101530.94;10412624;28;20100;-79
2022/09/02 11:50:30;;;;;;;1.00;0.50;;;;;;;25.90;51.48;101516.06;10444431;28;20033;-79
2022/09/02 11:55:42;;;;;;;4.60;0.90;;;;;;;26.13;51.48;101512.91;10431272;28;20491;-89
2022/09/02 12:00:54;;;;;;;1.25;0.68;;;;;;;26.78;50.36;101505.59;10386934;28;20052;-86
2022/09/02 12:06:22;;;;;;;4.35;0.50;;;;;;;27.61;48.98;101501.91;10441210;28;20055;-88
2022/09/02 12:11:37;;;;;;;3.80;0.60;;;;;;;27.83;47.05;101481.59;10441326;28;20041;-88
2022/09/02 12:17:02;;;;;;;1.67;0.40;;;;;;;28.06;45.93;101472.59;10402888;28;20040;-84
2022/09/02 12:22:15;;;;;;;3.80;0.63;;;;;;;28.23;44.72;101465.78;10345970;28;20038;-86
2022/09/02 12:27:38;;;;;;;4.05;0.70;;;;;;;28.36;44.33;101453.19;10449588;28;20061;-81
2022/09/02 12:32:45;;;;;;;1.55;0.80;;;;;;;29.21;42.44;101453.00;10436417;28;20068;-83
2022/09/02 12:37:51;;;;;;;3.22;0.85;;;;;;;29.72;40.26;101433.13;10455864;28;20033;-80
2022/09/02 12:42:52;;;;;;;10.50;3.05;;;;;;;29.34;40.25;101395.81;10454953;28;20048;-85
2022/09/02 12:48:10;;;;;;;11.82;1.65;;;;;;;29.61;40.00;101434.91;10384687;28;20045;-76
2022/09/02 12:53:22;;;;;;;2.22;0.55;;;;;;;29.84;39.19;101423.66;10398660;28;20048;-84
2022/09/02 12:58:23;;;;;;;3.22;0.85;;;;;;;29.92;39.30;101431.13;10414270;28;20037;-86
2022/09/02 13:03:59;;;;;;;4.13;0.82;;;;;;;30.60;37.66;101401.22;10421217;28;20061;-87
2022/09/02 13:09:14;;;;;;;4.03;0.60;;;;;;;30.78;36.88;101401.53;10422760;28;20040;-91
2022/09/02 13:14:26;;;;;;;3.58;0.63;;;;;;;30.85;37.12;101407.31;10397439;28;20049;-86
2022/09/02 13:19:54;;;;;;;2.97;0.80;;;;;;;30.69;35.87;101390.41;10456230;28;20041;-82
2022/09/02 13:25:14;;;;;;;2.95;0.68;;;;;;;30.01;36.45;101399.69;10454202;28;20369;-81
2022/09/02 13:30:23;;;;;;;3.05;0.80;;;;;;;29.92;36.89;101409.25;10457246;28;20041;-77
2022/09/02 13:35:25;;;;;;;5.13;0.70;;;;;;;29.41;37.09;101395.16;10412035;28;20069;-78
2022/09/02 13:40:32;;;;;;;5.43;0.80;;;;;;;29.95;36.14;101380.13;10396296;28;20041;-74
2022/09/02 13:45:33;;;;;;;1.90;0.75;;;;;;;30.37;36.45;101396.34;10411354;28;20045;-73
2022/09/02 13:50:34;;;;;;;3.67;0.80;;;;;;;30.36;36.06;101400.38;10396028;28;20049;-74
2022/09/02 13:55:34;;;;;;;3.13;1.42;;;;;;;30.91;34.87;101385.13;10415879;28;20041;-84
2022/09/02 14:00:39;;;;;;;3.80;0.98;;;;;;;30.42;35.47;101377.34;10382744;28;20041;-80
2022/09/02 14:05:41;;;;;;;3.45;1.33;;;;;;;30.03;35.41;101360.38;10411831;28;20038;-80
2022/09/02 14:10:42;;;;;;;5.10;0.73;;;;;;;30.09;35.82;101361.72;10397656;28;20033;-81
2022/09/02 14:15:43;;;;;;;1.98;0.50;;;;;;;30.32;35.38;101351.19;10421137;28;20044;-80
2022/09/02 14:21:15;;;;;;;2.63;0.80;;;;;;;30.60;35.26;101355.75;10454117;28;20033;-77
2022/09/02 14:26:36;;;;;;;3.47;0.80;;;;;;;30.27;36.02;101351.50;10457306;28;20063;-75
2022/09/02 14:31:36;;;;;;;1.80;0.63;;;;;;;30.64;35.18;101359.47;10462461;28;20432;-77
2022/09/02 14:36:37;;;;;;;3.42;0.90;;;;;;;30.87;34.35;101345.25;10443901;28;20450;-76
2022/09/02 14:41:42;;;;;;;1.73;0.77;;;;;;;30.85;34.89;101343.97;10460930;28;20040;-78
2022/09/02 14:46:43;;;;;;;4.20;0.80;;;;;;;31.09;33.67;101331.34;10411075;28;20041;-76
2022/09/02 14:51:45;;;;;;;2.65;0.70;;;;;;;30.54;35.28;101323.19;10380237;28;20042;-77
2022/09/02 14:56:49;;;;;;;4.72;1.27;;;;;;;30.07;35.47;101332.88;10344961;28;20113;-76
2022/09/02 15:01:50;;;;;;;6.05;0.90;;;;;;;30.04;36.10;101319.44;10433283;28;20041;-77
2022/09/02 15:06:51;;;;;;;5.20;1.45;;;;;;;28.72;36.70;101278.56;10442309;28;20041;-79
2022/09/02 15:11:52;;;;;;;10.98;1.25;;;;;;;28.69;37.85;101353.78;10460420;28;20045;-79
2022/09/02 15:16:54;;;;;;;3.42;0.90;;;;;;;29.38;37.13;101325.81;10443403;28;20454;-78
2022/09/02 15:21:54;;;;;;;6.47;0.80;;;;;;;30.23;35.81;101327.91;10462515;28;20039;-78
2022/09/02 15:26:54;;;;;;;1.52;0.75;;;;;;;30.67;34.64;101310.38;10462117;28;20048;-79
2022/09/02 15:31:55;;;;;;;2.15;0.68;;;;;;;31.28;34.65;101314.16;10441432;28;20044;-78
2022/09/02 15:36:56;;;;;;;5.22;0.95;;;;;;;30.99;35.21;101304.41;10440882;28;20025;-77
2022/09/02 15:41:56;;;;;;;4.53;1.02;;;;;;;30.43;34.66;101296.59;10424779;28;20057;-80
2022/09/02 15:46:57;;;;;;;12.02;1.10;;;;;;;29.73;35.31;101296.56;10457635;28;20044;-79
2022/09/02 15:51:57;;;;;;;78.15;5.30;;;;;;;29.27;36.38;101298.41;10442446;28;20505;-76
2022/09/02 15:56:58;;;;;;;1.80;0.95;;;;;;;28.76;37.41;101305.78;10443047;28;20071;-77
2022/09/02 16:01:59;;;;;;;4.25;0.90;;;;;;;27.67;38.80;101313.78;10442871;28;20029;-78
2022/09/02 16:07:00;;;;;;;11.52;1.10;;;;;;;26.83;40.13;101287.06;10426271;28;20060;-79
2022/09/02 16:12:00;;;;;;;2.83;0.90;;;;;;;26.11;40.61;101301.63;10416192;28;20113;-76
2022/09/02 16:17:00;;;;;;;3.97;0.90;;;;;;;25.69;42.23;101304.50;10447812;28;20040;-78
2022/09/02 16:22:01;;;;;;;5.80;0.80;;;;;;;25.24;43.49;101301.59;10457986;28;20071;-78
2022/09/02 16:27:02;;;;;;;6.25;1.05;;;;;;;24.82;44.34;101321.28;10458300;28;20037;-77
2022/09/02 16:32:02;;;;;;;3.53;0.73;;;;;;;24.56;44.67;101299.75;10457315;28;20037;-78
2022/09/02 16:37:03;;;;;;;9.63;1.10;;;;;;;24.16;45.87;101280.34;10416443;28;20102;-77
2022/09/02 16:42:04;;;;;;;5.57;1.15;;;;;;;23.97;46.62;101300.44;10416940;28;20061;-79
2022/09/02 16:47:04;;;;;;;42.35;3.05;;;;;;;23.79;47.59;101307.25;10414377;28;20067;-77
2022/09/02 16:52:05;;;;;;;3.13;0.68;;;;;;;23.53;48.16;101294.88;10417920;28;20072;-77
2022/09/02 16:57:06;;;;;;;13.13;1.00;;;;;;;23.43;48.20;101305.63;10417900;28;20049;-76
2022/09/02 17:02:06;;;;;;;8.93;0.90;;;;;;;23.24;49.05;101289.09;10403607;28;20040;-73
2022/09/02 17:07:08;;;;;;;11.35;1.17;;;;;;;22.89;49.74;101255.34;10449296;28;20056;-76
2022/09/02 17:12:08;;;;;;;3.25;0.90;;;;;;;23.05;50.40;101309.06;10414782;28;20048;-78
2022/09/02 17:17:13;;;;;;;42.75;4.85;;;;;;;22.90;51.47;101296.28;10414762;28;20041;-77
2022/09/02 17:22:14;;;;;;;5.68;0.85;;;;;;;22.86;51.77;101317.75;10375477;28;20042;-76
2022/09/02 17:27:14;;;;;;;50.60;3.35;;;;;;;22.72;51.86;101315.91;10375418;28;20045;-76
2022/09/02 17:32:15;;;;;;;5.32;1.23;;;;;;;22.62;52.47;101319.03;10386100;28;20076;-77
2022/09/02 17:37:16;;;;;;;52.20;7.20;;;;;;;22.49;53.44;101319.97;10392837;28;20083;-80
2022/09/02 17:42:17;;;;;;;5.32;0.90;;;;;;;22.31;53.24;101308.69;10370577;28;20044;-80
2022/09/02 17:47:20;;;;;;;5.00;1.02;;;;;;;22.10;53.42;101301.97;10357519;28;20101;-78
2022/09/02 17:52:22;;;;;;;1.30;0.65;;;;;;;21.98;54.19;101315.75;10397523;28;20543;-76
2022/09/02 17:57:36;;;;;;;6.50;2.10;;;;;;;21.69;54.71;101305.84;10365753;28;20050;-80
2022/09/02 18:03:01;;;;;;;5.28;0.95;;;;;;;21.50;55.50;101323.66;10399296;28;20430;-77
2022/09/02 18:08:05;;;;;;;2.00;0.82;;;;;;;21.32;56.11;101330.25;10428148;28;20041;-79
2022/09/02 18:13:08;;;;;;;1.27;0.77;;;;;;;21.11;56.13;101315.88;10433435;28;20516;-78
2022/09/02 18:18:09;;;;;;;7.35;1.23;;;;;;;20.90;57.06;101309.94;10417524;28;20472;-78
2022/09/02 18:23:19;;;;;;;1.52;0.77;;;;;;;20.87;57.16;101333.75;10402884;28;20028;-78
2022/09/02 18:28:32;;;;;;;6.78;0.90;;;;;;;20.76;58.11;101333.16;10418867;28;20531;-77
2022/09/02 18:33:55;;;;;;;7.55;1.58;;;;;;;20.66;58.70;101343.72;10434826;28;20120;-77
2022/09/02 18:39:04;;;;;;;2.50;0.90;;;;;;;;;;10400114;28;20427;-77
2022/09/02 18:44:41;;;;;;;4.28;1.10;;;;;;;20.29;59.37;101321.19;10414296;28;20101;-77
2022/09/02 18:49:41;;;;;;;2.80;0.90;;;;;;;20.42;60.04;101360.66;10383388;28;20042;-80
2022/09/02 18:55:00;;;;;;;4.72;1.42;;;;;;;20.34;59.61;101354.66;10357575;28;20041;-79
2022/09/02 19:00:05;;;;;;;4.70;0.80;;;;;;;20.29;60.25;101365.94;10413803;28;20037;-76
2022/09/02 19:05:08;;;;;;;3.63;1.00;;;;;;;20.15;60.69;101356.69;10427755;28;20206;-76
2022/09/02 19:10:09;;;;;;;3.92;0.85;;;;;;;20.11;60.92;101366.81;10409566;28;20133;-77
2022/09/02 19:15:10;;;;;;;9.80;0.80;;;;;;;19.49;61.20;101289.66;10416984;28;20049;-78
2022/09/02 19:20:11;;;;;;;11.45;1.00;;;;;;;19.91;61.58;101382.81;10431648;28;20038;-79
2022/09/02 19:25:13;;;;;;;6.05;0.93;;;;;;;19.72;62.15;101363.31;10420688;28;20405;-79
2022/09/02 19:30:17;;;;;;;3.33;0.80;;;;;;;19.73;62.20;101383.69;10415647;28;20029;-78
2022/09/02 19:35:20;;;;;;;5.85;0.90;;;;;;;19.61;62.43;101380.50;10402523;28;20038;-79
2022/09/02 19:40:26;;;;;;;4.30;1.08;;;;;;;19.46;62.51;101370.41;10412173;28;20036;-79
2022/09/02 19:45:28;;;;;;;5.13;1.23;;;;;;;19.40;62.34;101377.19;10388147;28;20049;-79
2022/09/02 19:50:28;;;;;;;4.10;0.65;;;;;;;19.40;62.58;101391.97;10399759;28;20091;-79
2022/09/02 19:55:29;;;;;;;7.78;0.90;;;;;;;19.30;62.94;101392.09;10417383;28;20038;-78
2022/09/02 20:00:31;;;;;;;1.73;0.90;;;;;;;19.18;63.41;101400.09;10426993;28;20032;-77
2022/09/02 20:05:32;;;;;;;2.97;0.70;;;;;;;18.95;63.28;101374.72;10426394;28;20040;-79
2022/09/02 20:10:33;;;;;;;1.67;1.23;;;;;;;18.97;63.66;101399.53;10418062;28;20040;-79
2022/09/02 20:15:36;;;;;;;2.85;0.80;;;;;;;18.88;63.70;101407.75;10387396;28;20409;-80
2022/09/02 20:20:40;;;;;;;4.57;1.08;;;;;;;18.59;63.25;101361.19;10398168;28;20029;-78
2022/09/02 20:25:46;;;;;;;4.78;1.10;;;;;;;18.86;63.59;101410.81;10396557;28;20467;-78
2022/09/02 20:30:47;;;;;;;3.55;0.90;;;;;;;18.66;63.99;101392.31;10435316;28;20040;-77
2022/09/02 20:36:10;;;;;;;4.80;1.00;;;;;;;18.71;64.42;101409.00;10413100;28;20044;-77
2022/09/02 20:41:43;;;;;;;5.43;1.48;;;;;;;18.57;65.10;101419.22;10438109;28;20083;-77
2022/09/02 20:46:44;;;;;;;4.07;0.90;;;;;;;18.32;65.13;101396.03;10418097;28;20037;-78
2022/09/02 20:52:04;;;;;;;1.67;0.73;;;;;;;18.28;65.15;101406.13;10442920;28;20041;-77
2022/09/02 20:57:23;;;;;;;3.00;1.30;;;;;;;18.14;65.63;101407.91;10427870;28;20051;-77
2022/09/02 21:02:26;;;;;;;1.73;0.80;;;;;;;17.81;65.74;101374.19;10424705;28;20033;-77
2022/09/02 21:07:32;;;;;;;3.13;0.65;;;;;;;17.95;65.74;101405.03;10422561;28;20049;-77
2022/09/02 21:12:58;;;;;;;3.17;0.85;;;;;;;17.81;65.96;101390.06;10423650;28;20076;-77
2022/09/02 21:18:20;;;;;;;3.28;0.90;;;;;;;17.86;66.28;101410.38;10440053;28;20072;-77
2022/09/02 21:23:47;;;;;;;7.57;1.00;;;;;;;17.65;66.36;101403.25;10442986;28;20962;-77
2022/09/02 21:28:52;;;;;;;6.63;1.08;;;;;;;17.58;66.77;101406.38;10420557;28;20048;-77
2022/09/02 21:33:53;;;;;;;2.03;1.02;;;;;;;17.37;67.29;101402.88;10405595;28;20213;-77
2022/09/02 21:38:53;;;;;;;2.85;1.77;;;;;;;17.30;67.30;101407.91;10405268;28;20093;-76
2022/09/02 21:44:09;;;;;;;2.95;1.00;;;;;;;17.25;67.79;101413.53;10425319;28;20059;-76
2022/09/02 21:49:31;;;;;;;4.63;1.10;;;;;;;17.10;68.41;101420.84;10442585;28;20056;-76
2022/09/02 21:54:45;;;;;;;4.53;0.90;;;;;;;16.62;68.85;101370.38;10397445;28;20049;-76
2022/09/02 22:00:05;;;;;;;3.17;0.70;;;;;;;16.74;69.55;101412.59;10435561;28;20045;-76
2022/09/02 22:05:33;;;;;;;1.23;0.70;;;;;;;16.68;70.40;101430.41;10439823;28;20045;-76
2022/09/02 22:10:39;;;;;;;4.78;0.90;;;;;;;16.52;70.53;101409.31;10441920;28;20037;-76
2022/09/02 22:15:55;;;;;;;5.63;0.93;;;;;;;16.48;71.07;101419.34;10437404;28;20123;-76
2022/09/02 22:21:00;;;;;;;2.27;1.20;;;;;;;16.37;71.41;101406.56;10442275;28;20401;-77
2022/09/02 22:26:37;;;;;;;3.95;0.93;;;;;;;16.21;71.89;101409.38;10424668;28;20239;-77
2022/09/02 22:31:38;;;;;;;5.28;0.95;;;;;;;16.15;72.78;101418.81;10409949;28;20096;-77
2022/09/02 22:36:59;;;;;;;4.05;0.82;;;;;;;16.07;73.03;101411.88;10404603;28;20073;-76
2022/09/02 22:42:35;;;;;;;3.67;0.80;;;;;;;15.64;73.38;101363.25;10411048;28;20072;-77
2022/09/02 22:52:54;;;;;;;3.67;0.52;;;;;;;15.74;74.17;101399.38;10446471;28;20041;-76
2022/09/02 22:58:08;;;;;;;2.22;0.90;;;;;;;15.80;74.54;101409.38;10416769;28;20045;-76
2022/09/02 23:03:19;;;;;;;6.55;0.80;;;;;;;15.60;74.92;101382.38;10433122;28;20033;-77
2022/09/02 23:08:20;;;;;;;1.40;0.60;;;;;;;15.73;75.29;101406.03;10360339;28;20042;-76
2022/09/02 23:13:52;;;;;;;1.70;0.77;;;;;;;15.66;75.71;101406.25;10400506;28;20576;-76
2022/09/02 23:19:12;;;;;;;3.65;0.90;;;;;;;15.49;75.61;101387.09;10419730;28;20041;-78
2022/09/02 23:24:43;;;;;;;2.78;0.80;;;;;;;15.61;75.96;101399.88;10418534;28;20040;-78
2022/09/02 23:29:44;;;;;;;2.05;0.70;;;;;;;15.19;76.26;101332.38;10375350;28;20040;-77